createdAt,value
2019-03-22T00:00:03.924Z,22
2019-03-22T00:01:01.633Z,27
2019-03-22T00:02:01.852Z,22
2019-03-22T00:03:02.174Z,23
2019-03-22T00:04:02.462Z,23
2019-03-22T00:05:01.977Z,20
2019-03-22T00:06:01.931Z,24
2019-03-22T00:07:02.179Z,24
2019-03-22T00:08:02.389Z,23
2019-03-22T00:09:02.518Z,22
2019-03-22T00:10:01.844Z,24
2019-03-22T00:11:02.027Z,23
2019-03-22T00:12:04.693Z,20
2019-03-22T00:13:02.497Z,24
2019-03-22T00:14:01.714Z,20
2019-03-22T00:15:02.095Z,24
2019-03-22T00:16:02.285Z,21
2019-03-22T00:17:02.465Z,23
2019-03-22T00:18:01.652Z,24
2019-03-22T00:19:01.958Z,23
2019-03-22T00:20:02.181Z,23
2019-03-22T00:21:02.459Z,24
2019-03-22T00:22:01.663Z,23
2019-03-22T00:23:01.836Z,22
2019-03-22T00:24:02.114Z,23
2019-03-22T00:25:02.341Z,21
2019-03-22T00:26:02.550Z,25
2019-03-22T00:27:01.745Z,23
2019-03-22T00:28:01.997Z,23
2019-03-22T00:29:02.255Z,25
2019-03-22T00:30:02.630Z,26
2019-03-22T00:31:01.724Z,20
2019-03-22T00:32:01.982Z,25
2019-03-22T00:33:02.299Z,24
2019-03-22T00:34:02.514Z,23
2019-03-22T00:35:01.682Z,26
2019-03-22T00:36:02.055Z,21
2019-03-22T00:37:02.301Z,23
2019-03-22T00:38:02.495Z,20
2019-03-22T00:39:01.685Z,26
2019-03-22T00:40:01.923Z,28
2019-03-22T00:41:02.062Z,24
2019-03-22T00:42:01.859Z,26
2019-03-22T00:43:02.144Z,24
2019-03-22T00:44:02.309Z,23
2019-03-22T00:45:02.583Z,28
2019-03-22T00:46:01.786Z,22
2019-03-22T00:47:02.035Z,26
2019-03-22T00:48:02.277Z,22
2019-03-22T00:49:02.447Z,26
2019-03-22T00:50:01.780Z,23
2019-03-22T00:51:01.960Z,23
2019-03-22T00:52:02.164Z,24
2019-03-22T00:53:02.388Z,26
2019-03-22T00:54:02.578Z,25
2019-03-22T00:55:01.902Z,24
2019-03-22T00:56:02.090Z,23
2019-03-22T00:57:02.317Z,22
2019-03-22T00:58:02.659Z,23
2019-03-22T00:59:01.764Z,25
2019-03-22T01:00:04.107Z,23
2019-03-22T01:01:01.938Z,23
2019-03-22T01:02:02.156Z,24
2019-03-22T01:03:02.445Z,22
2019-03-22T01:04:01.638Z,26
2019-03-22T01:05:01.836Z,23
2019-03-22T01:06:02.060Z,23
2019-03-22T01:07:06.825Z,25
2019-03-22T01:08:02.476Z,24
2019-03-22T01:09:01.798Z,22
2019-03-22T01:10:02.045Z,24
2019-03-22T01:11:02.108Z,29
2019-03-22T01:12:02.392Z,24
2019-03-22T01:13:02.667Z,29
2019-03-22T01:14:01.818Z,28
2019-03-22T01:15:02.080Z,23
2019-03-22T01:16:02.217Z,27
2019-03-22T01:17:02.466Z,23
2019-03-22T01:18:01.680Z,24
2019-03-22T01:19:01.956Z,22
2019-03-22T01:20:02.063Z,25
2019-03-22T01:21:02.512Z,27
2019-03-22T01:22:02.017Z,24
2019-03-22T01:23:02.197Z,28
2019-03-22T01:24:02.515Z,25
2019-03-22T01:25:01.771Z,26
2019-03-22T01:26:01.984Z,25
2019-03-22T01:27:02.201Z,26
2019-03-22T01:28:02.469Z,26
2019-03-22T01:29:02.637Z,25
2019-03-22T01:30:01.855Z,25
2019-03-22T01:31:02.081Z,23
2019-03-22T01:32:02.367Z,26
2019-03-22T01:33:02.556Z,25
2019-03-22T01:34:01.849Z,26
2019-03-22T01:35:02.159Z,28
2019-03-22T01:36:02.228Z,21
2019-03-22T01:37:02.489Z,25
2019-03-22T01:38:01.718Z,26
2019-03-22T01:39:02.003Z,27
2019-03-22T01:40:02.214Z,27
2019-03-22T01:41:02.492Z,31
2019-03-22T01:42:01.829Z,25
2019-03-22T01:43:02.013Z,23
2019-03-22T01:44:02.373Z,27
2019-03-22T01:45:02.566Z,31
2019-03-22T01:46:02.114Z,27
2019-03-22T01:47:02.284Z,29
2019-03-22T01:48:02.437Z,27
2019-03-22T01:49:01.673Z,28
2019-03-22T01:50:01.929Z,26
2019-03-22T01:51:02.089Z,28
2019-03-22T01:52:02.311Z,28
2019-03-22T01:53:02.556Z,29
2019-03-22T01:54:01.802Z,24
2019-03-22T01:55:02.042Z,20
2019-03-22T01:56:02.257Z,25
2019-03-22T01:57:02.528Z,22
2019-03-22T01:58:01.634Z,26
2019-03-22T01:59:01.915Z,25
2019-03-22T02:00:03.960Z,26
2019-03-22T02:01:01.771Z,28
2019-03-22T02:02:02.033Z,24
2019-03-22T02:03:02.194Z,25
2019-03-22T02:04:02.456Z,28
2019-03-22T02:05:01.789Z,24
2019-03-22T02:06:01.944Z,28
2019-03-22T02:07:02.155Z,26
2019-03-22T02:08:02.465Z,28
2019-03-22T02:09:02.332Z,29
2019-03-22T02:10:02.523Z,27
2019-03-22T02:11:01.806Z,26
2019-03-22T02:12:02.120Z,28
2019-03-22T02:13:02.164Z,23
2019-03-22T02:14:02.361Z,27
2019-03-22T02:15:02.561Z,25
2019-03-22T02:16:01.790Z,26
2019-03-22T02:17:02.037Z,21
2019-03-22T02:18:02.441Z,25
2019-03-22T02:19:02.479Z,28
2019-03-22T02:20:01.758Z,30
2019-03-22T02:21:05.603Z,26
2019-03-22T02:22:02.281Z,27
2019-03-22T02:23:02.596Z,31
2019-03-22T02:24:01.717Z,30
2019-03-22T02:25:01.944Z,27
2019-03-22T02:26:02.118Z,29
2019-03-22T02:27:02.333Z,30
2019-03-22T02:28:04.857Z,29
2019-03-22T02:29:02.135Z,24
2019-03-22T02:30:02.229Z,26
2019-03-22T02:31:02.297Z,31
2019-03-22T02:32:02.502Z,25
2019-03-22T02:33:01.769Z,28
2019-03-22T02:34:02.067Z,25
2019-03-22T02:35:02.239Z,29
2019-03-22T02:36:02.467Z,27
2019-03-22T02:37:01.726Z,28
2019-03-22T02:38:02.058Z,28
2019-03-22T02:39:02.333Z,26
2019-03-22T02:40:02.414Z,24
2019-03-22T02:41:02.181Z,25
2019-03-22T02:42:02.233Z,27
2019-03-22T02:43:02.608Z,26
2019-03-22T02:44:01.788Z,28
2019-03-22T02:45:01.980Z,24
2019-03-22T02:46:01.898Z,33
2019-03-22T02:47:02.311Z,27
2019-03-22T02:48:02.271Z,28
2019-03-22T02:49:02.719Z,28
2019-03-22T02:50:19.783Z,30
2019-03-22T02:51:02.203Z,23
2019-03-22T02:52:02.384Z,28
2019-03-22T02:53:02.381Z,25
2019-03-22T02:54:01.689Z,30
2019-03-22T02:55:01.902Z,30
2019-03-22T02:56:02.660Z,25
2019-03-22T02:57:02.308Z,30
2019-03-22T02:58:02.586Z,21
2019-03-22T02:59:01.731Z,28
2019-03-22T03:00:04.245Z,23
2019-03-22T03:01:01.981Z,29
2019-03-22T03:02:01.885Z,29
2019-03-22T03:03:02.147Z,27
2019-03-22T03:04:02.381Z,26
2019-03-22T03:05:02.759Z,30
2019-03-22T03:06:01.873Z,29
2019-03-22T03:07:02.080Z,26
2019-03-22T03:08:02.306Z,28
2019-03-22T03:09:02.503Z,23
2019-03-22T03:10:01.879Z,25
2019-03-22T03:11:02.377Z,25
2019-03-22T03:12:02.528Z,31
2019-03-22T03:13:01.898Z,25
2019-03-22T03:14:02.018Z,30
2019-03-22T03:15:02.344Z,21
2019-03-22T03:16:02.510Z,28
2019-03-22T03:17:01.789Z,26
2019-03-22T03:18:02.005Z,27
2019-03-22T03:19:02.380Z,27
2019-03-22T03:20:02.432Z,30
2019-03-22T03:21:01.663Z,26
2019-03-22T03:22:01.943Z,25
2019-03-22T03:23:02.219Z,30
2019-03-22T03:24:02.452Z,28
2019-03-22T03:25:01.678Z,27
2019-03-22T03:26:01.837Z,25
2019-03-22T03:27:01.998Z,28
2019-03-22T03:28:02.209Z,31
2019-03-22T03:29:02.392Z,32
2019-03-22T03:30:02.713Z,26
2019-03-22T03:31:01.905Z,30
2019-03-22T03:32:02.171Z,28
2019-03-22T03:33:02.452Z,27
2019-03-22T03:34:02.613Z,31
2019-03-22T03:35:02.479Z,26
2019-03-22T03:36:02.622Z,28
2019-03-22T03:37:01.794Z,30
2019-03-22T03:38:02.053Z,26
2019-03-22T03:39:02.227Z,29
2019-03-22T03:40:02.845Z,26
2019-03-22T03:41:01.676Z,31
2019-03-22T03:42:02.217Z,23
2019-03-22T03:43:02.174Z,26
2019-03-22T03:44:02.359Z,27
2019-03-22T03:45:02.603Z,27
2019-03-22T03:46:01.760Z,37
2019-03-22T03:47:02.113Z,28
2019-03-22T03:48:02.113Z,25
2019-03-22T03:49:02.456Z,28
2019-03-22T03:50:01.725Z,27
2019-03-22T03:51:01.965Z,25
2019-03-22T03:52:02.194Z,33
2019-03-22T03:53:02.497Z,28
2019-03-22T03:54:01.709Z,26
2019-03-22T03:55:01.927Z,24
2019-03-22T03:56:02.176Z,26
2019-03-22T03:57:02.418Z,24
2019-03-22T03:58:02.530Z,25
2019-03-22T03:59:01.757Z,28
2019-03-22T04:00:02.026Z,28
2019-03-22T04:01:02.381Z,24
2019-03-22T04:02:02.534Z,28
2019-03-22T04:03:01.665Z,26
2019-03-22T04:04:01.904Z,29
2019-03-22T04:05:02.300Z,26
2019-03-22T04:06:02.471Z,27
2019-03-22T04:07:01.727Z,25
2019-03-22T04:08:01.918Z,35
2019-03-22T04:09:02.162Z,24
2019-03-22T04:10:02.513Z,25
2019-03-22T04:11:02.563Z,28
2019-03-22T04:12:01.898Z,25
2019-03-22T04:13:02.066Z,24
2019-03-22T04:14:02.335Z,27
2019-03-22T04:15:02.551Z,29
2019-03-22T04:16:01.758Z,25
2019-03-22T04:17:01.996Z,30
2019-03-22T04:18:02.238Z,29
2019-03-22T04:19:02.801Z,33
2019-03-22T04:20:01.980Z,28
2019-03-22T04:21:02.134Z,29
2019-03-22T04:22:02.219Z,30
2019-03-22T04:23:02.493Z,29
2019-03-22T04:24:01.632Z,26
2019-03-22T04:25:02.353Z,28
2019-03-22T04:26:02.102Z,28
2019-03-22T04:27:02.346Z,28
2019-03-22T04:28:02.540Z,32
2019-03-22T04:29:08.797Z,29
2019-03-22T04:30:02.154Z,26
2019-03-22T04:31:02.266Z,28
2019-03-22T04:32:02.495Z,29
2019-03-22T04:33:01.794Z,31
2019-03-22T04:34:01.929Z,36
2019-03-22T04:35:01.742Z,28
2019-03-22T04:36:01.909Z,27
2019-03-22T04:37:02.158Z,25
2019-03-22T04:38:02.343Z,25
2019-03-22T04:39:02.579Z,26
2019-03-22T04:40:01.832Z,29
2019-03-22T04:41:02.131Z,30
2019-03-22T04:42:02.320Z,27
2019-03-22T04:43:02.551Z,32
2019-03-22T04:44:01.864Z,25
2019-03-22T04:45:02.168Z,29
2019-03-22T04:46:02.472Z,24
2019-03-22T04:47:02.623Z,29
2019-03-22T04:48:02.432Z,24
2019-03-22T04:49:01.671Z,28
2019-03-22T04:50:01.885Z,26
2019-03-22T04:51:02.132Z,32
2019-03-22T04:52:02.102Z,35
2019-03-22T04:53:02.378Z,29
2019-03-22T04:54:02.524Z,25
2019-03-22T04:55:01.852Z,20
2019-03-22T04:56:01.731Z,29
2019-03-22T04:57:02.003Z,30
2019-03-22T04:58:02.202Z,34
2019-03-22T04:59:02.405Z,24
2019-03-22T05:00:03.401Z,32
2019-03-22T05:01:02.255Z,25
2019-03-22T05:02:02.370Z,28
2019-03-22T05:03:02.667Z,30
2019-03-22T05:04:01.966Z,30
2019-03-22T05:05:02.187Z,26
2019-03-22T05:06:02.402Z,33
2019-03-22T05:07:02.571Z,29
2019-03-22T05:08:02.558Z,24
2019-03-22T05:09:01.678Z,28
2019-03-22T05:10:02.007Z,32
2019-03-22T05:11:01.918Z,28
2019-03-22T05:12:02.163Z,27
2019-03-22T05:13:02.358Z,27
2019-03-22T05:14:02.540Z,30
2019-03-22T05:15:01.765Z,25
2019-03-22T05:16:02.031Z,31
2019-03-22T05:17:02.241Z,23
2019-03-22T05:18:02.460Z,28
2019-03-22T05:19:01.658Z,31
2019-03-22T05:20:01.996Z,28
2019-03-22T05:21:02.283Z,30
2019-03-22T05:22:02.461Z,30
2019-03-22T05:23:02.577Z,28
2019-03-22T05:24:01.826Z,28
2019-03-22T05:25:02.082Z,25
2019-03-22T05:26:02.200Z,26
2019-03-22T05:27:02.498Z,25
2019-03-22T05:28:02.620Z,28
2019-03-22T05:29:01.804Z,30
2019-03-22T05:30:02.105Z,25
2019-03-22T05:31:02.372Z,25
2019-03-22T05:32:02.629Z,28
2019-03-22T05:33:01.811Z,28
2019-03-22T05:34:02.053Z,29
2019-03-22T05:35:02.376Z,26
2019-03-22T05:36:02.668Z,25
2019-03-22T05:37:01.827Z,23
2019-03-22T05:38:01.855Z,24
2019-03-22T05:39:02.081Z,29
2019-03-22T05:40:02.369Z,25
2019-03-22T05:41:02.657Z,28
2019-03-22T05:42:01.840Z,30
2019-03-22T05:43:02.093Z,35
2019-03-22T05:44:02.266Z,30
2019-03-22T05:45:02.561Z,33
2019-03-22T05:46:01.866Z,29
2019-03-22T05:47:02.062Z,25
2019-03-22T05:48:02.263Z,30
2019-03-22T05:49:02.513Z,28
2019-03-22T05:50:01.783Z,25
2019-03-22T05:51:02.105Z,29
2019-03-22T05:52:02.185Z,31
2019-03-22T05:53:02.292Z,33
2019-03-22T05:54:02.511Z,30
2019-03-22T05:55:01.846Z,25
2019-03-22T05:56:02.207Z,30
2019-03-22T05:57:14.173Z,31
2019-03-22T05:58:02.494Z,27
2019-03-22T05:59:01.731Z,34
2019-03-22T06:00:04.175Z,33
2019-03-22T06:01:02.159Z,29
2019-03-22T06:02:02.274Z,33
2019-03-22T06:03:02.525Z,33
2019-03-22T06:04:01.699Z,23
2019-03-22T06:05:01.958Z,27
2019-03-22T06:06:02.453Z,30
2019-03-22T06:07:02.309Z,32
2019-03-22T06:08:02.501Z,27
2019-03-22T06:09:01.677Z,31
2019-03-22T06:10:02.101Z,27
2019-03-22T06:11:02.337Z,29
2019-03-22T06:12:02.545Z,28
2019-03-22T06:13:01.766Z,30
2019-03-22T06:14:01.904Z,31
2019-03-22T06:15:02.169Z,28
2019-03-22T06:16:02.423Z,26
2019-03-22T06:17:02.614Z,25
2019-03-22T06:18:01.897Z,31
2019-03-22T06:19:02.129Z,29
2019-03-22T06:20:02.397Z,26
2019-03-22T06:21:02.579Z,26
2019-03-22T06:22:01.768Z,25
2019-03-22T06:23:02.035Z,28
2019-03-22T06:24:02.342Z,29
2019-03-22T06:25:02.687Z,21
2019-03-22T06:26:01.847Z,28
2019-03-22T06:27:02.139Z,27
2019-03-22T06:28:02.399Z,27
2019-03-22T06:29:02.203Z,28
2019-03-22T06:30:02.643Z,29
2019-03-22T06:31:01.877Z,27
2019-03-22T06:32:02.077Z,33
2019-03-22T06:33:02.353Z,32
2019-03-22T06:34:02.466Z,30
2019-03-22T06:35:01.798Z,28
2019-03-22T06:36:01.969Z,25
2019-03-22T06:37:02.183Z,27
2019-03-22T06:38:02.339Z,40
2019-03-22T06:39:02.532Z,47
2019-03-22T06:40:01.897Z,45
2019-03-22T06:41:02.082Z,55
2019-03-22T06:42:03.591Z,45
2019-03-22T06:43:02.581Z,48
2019-03-22T06:44:01.751Z,45
2019-03-22T06:45:02.020Z,44
2019-03-22T06:46:02.146Z,37
2019-03-22T06:47:02.415Z,38
2019-03-22T06:48:01.680Z,37
2019-03-22T06:49:01.866Z,40
2019-03-22T06:50:02.155Z,33
2019-03-22T06:51:02.529Z,35
2019-03-22T06:52:01.768Z,41
2019-03-22T06:53:02.022Z,40
2019-03-22T06:54:02.225Z,39
2019-03-22T06:55:02.525Z,37
2019-03-22T06:56:01.614Z,37
2019-03-22T06:57:01.881Z,42
2019-03-22T06:58:02.172Z,34
2019-03-22T06:59:02.408Z,40
2019-03-22T07:00:07.676Z,38
2019-03-22T07:01:02.263Z,33
2019-03-22T07:02:02.459Z,37
2019-03-22T07:03:01.669Z,39
2019-03-22T07:04:01.983Z,36
2019-03-22T07:05:02.133Z,36
2019-03-22T07:06:02.346Z,36
2019-03-22T07:07:02.624Z,35
2019-03-22T07:08:01.807Z,32
2019-03-22T07:09:02.025Z,35
2019-03-22T07:10:02.177Z,34
2019-03-22T07:11:02.400Z,39
2019-03-22T07:12:02.594Z,40
2019-03-22T07:13:01.818Z,42
2019-03-22T07:14:02.109Z,44
2019-03-22T07:15:02.487Z,32
2019-03-22T07:16:01.636Z,31
2019-03-22T07:17:01.912Z,41
2019-03-22T07:18:02.081Z,30
2019-03-22T07:19:02.420Z,35
2019-03-22T07:20:02.602Z,42
2019-03-22T07:21:02.628Z,33
2019-03-22T07:22:01.843Z,34
2019-03-22T07:23:02.133Z,37
2019-03-22T07:24:02.272Z,39
2019-03-22T07:25:02.265Z,32
2019-03-22T07:26:02.546Z,34
2019-03-22T07:27:01.626Z,33
2019-03-22T07:28:01.806Z,28
2019-03-22T07:29:02.060Z,30
2019-03-22T07:30:02.277Z,30
2019-03-22T07:31:02.411Z,30
2019-03-22T07:32:02.605Z,38
2019-03-22T07:33:01.881Z,33
2019-03-22T07:34:02.285Z,38
2019-03-22T07:35:02.449Z,34
2019-03-22T07:36:01.600Z,36
2019-03-22T07:37:01.807Z,38
2019-03-22T07:38:02.063Z,36
2019-03-22T07:39:02.433Z,34
2019-03-22T07:40:01.824Z,33
2019-03-22T07:41:01.998Z,35
2019-03-22T07:42:02.179Z,40
2019-03-22T07:43:02.446Z,26
2019-03-22T07:44:01.682Z,34
2019-03-22T07:45:01.868Z,30
2019-03-22T07:46:02.093Z,31
2019-03-22T07:47:02.377Z,33
2019-03-22T07:48:02.439Z,28
2019-03-22T07:49:02.705Z,31
2019-03-22T07:50:01.763Z,31
2019-03-22T07:51:01.955Z,34
2019-03-22T07:52:02.228Z,35
2019-03-22T07:53:02.462Z,34
2019-03-22T07:54:04.182Z,34
2019-03-22T07:55:01.905Z,33
2019-03-22T07:56:02.120Z,31
2019-03-22T07:57:02.300Z,32
2019-03-22T07:58:02.573Z,35
2019-03-22T07:59:01.756Z,29
2019-03-22T08:00:04.329Z,29
2019-03-22T08:01:02.131Z,27
2019-03-22T08:02:02.420Z,32
2019-03-22T08:03:02.606Z,32
2019-03-22T08:04:01.807Z,32
2019-03-22T08:05:02.629Z,31
2019-03-22T08:06:01.834Z,31
2019-03-22T08:07:02.108Z,29
2019-03-22T08:08:02.794Z,27
2019-03-22T08:09:02.685Z,31
2019-03-22T08:10:02.007Z,28
2019-03-22T08:11:02.039Z,31
2019-03-22T08:12:02.366Z,30
2019-03-22T08:13:02.530Z,36
2019-03-22T08:14:01.714Z,31
2019-03-22T08:15:01.983Z,38
2019-03-22T08:16:02.250Z,29
2019-03-22T08:17:02.489Z,33
2019-03-22T08:18:01.702Z,31
2019-03-22T08:19:02.077Z,31
2019-03-22T08:20:02.279Z,31
2019-03-22T08:21:02.461Z,27
2019-03-22T08:22:01.699Z,32
2019-03-22T08:23:01.904Z,34
2019-03-22T08:24:02.169Z,27
2019-03-22T08:25:02.319Z,29
2019-03-22T08:26:02.516Z,30
2019-03-22T08:27:01.724Z,31
2019-03-22T08:28:01.936Z,27
2019-03-22T08:29:02.116Z,31
2019-03-22T08:30:01.728Z,29
2019-03-22T08:31:01.904Z,30
2019-03-22T08:32:02.291Z,30
2019-03-22T08:33:02.360Z,29
2019-03-22T08:34:02.699Z,23
2019-03-22T08:35:01.843Z,30
2019-03-22T08:36:01.944Z,31
2019-03-22T08:37:02.207Z,31
2019-03-22T08:38:02.128Z,27
2019-03-22T08:39:02.673Z,27
2019-03-22T08:40:02.697Z,34
2019-03-22T08:41:01.893Z,28
2019-03-22T08:42:02.132Z,33
2019-03-22T08:43:02.326Z,29
2019-03-22T08:44:03.424Z,27
2019-03-22T08:45:01.786Z,27
2019-03-22T08:46:02.054Z,28
2019-03-22T08:47:02.263Z,27
2019-03-22T08:48:02.587Z,23
2019-03-22T08:49:01.900Z,28
2019-03-22T08:50:01.961Z,31
2019-03-22T08:51:02.160Z,27
2019-03-22T08:52:02.404Z,23
2019-03-22T08:53:02.571Z,34
2019-03-22T08:54:02.378Z,29
2019-03-22T08:55:02.614Z,30
2019-03-22T08:56:01.724Z,26
2019-03-22T08:57:01.964Z,30
2019-03-22T08:58:02.123Z,27
2019-03-22T08:59:02.351Z,25
2019-03-22T09:00:03.844Z,26
2019-03-22T09:01:02.563Z,27
2019-03-22T09:02:02.679Z,27
2019-03-22T09:03:01.801Z,30
2019-03-22T09:04:02.163Z,20
2019-03-22T09:05:02.360Z,32
2019-03-22T09:06:02.472Z,26
2019-03-22T09:07:01.700Z,25
2019-03-22T09:08:01.925Z,27
2019-03-22T09:09:02.039Z,28
2019-03-22T09:10:02.387Z,30
2019-03-22T09:11:02.512Z,25
2019-03-22T09:12:01.643Z,28
2019-03-22T09:13:01.864Z,32
2019-03-22T09:14:02.125Z,28
2019-03-22T09:15:02.390Z,28
2019-03-22T09:16:02.636Z,26
2019-03-22T09:17:01.871Z,26
2019-03-22T09:18:02.055Z,28
2019-03-22T09:19:02.273Z,26
2019-03-22T09:20:02.552Z,27
2019-03-22T09:21:01.839Z,31
2019-03-22T09:22:01.856Z,24
2019-03-22T09:23:02.195Z,25
2019-03-22T09:24:02.394Z,23
2019-03-22T09:25:02.725Z,28
2019-03-22T09:26:01.923Z,25
2019-03-22T09:27:02.148Z,31
2019-03-22T09:28:02.343Z,27
2019-03-22T09:29:02.436Z,26
2019-03-22T09:30:01.686Z,27
2019-03-22T09:31:11.475Z,24
2019-03-22T09:32:02.139Z,28
2019-03-22T09:33:02.240Z,23
2019-03-22T09:34:02.562Z,24
2019-03-22T09:35:01.736Z,28
2019-03-22T09:36:02.659Z,25
2019-03-22T09:37:01.934Z,28
2019-03-22T09:38:13.661Z,26
2019-03-22T09:39:02.367Z,24
2019-03-22T09:40:02.749Z,30
2019-03-22T09:41:01.928Z,29
2019-03-22T09:42:02.155Z,28
2019-03-22T09:43:02.405Z,26
2019-03-22T09:44:02.523Z,28
2019-03-22T09:45:01.756Z,29
2019-03-22T09:46:02.022Z,26
2019-03-22T09:47:02.187Z,25
2019-03-22T09:48:02.520Z,30
2019-03-22T09:49:02.564Z,27
2019-03-22T09:50:01.839Z,27
2019-03-22T09:51:02.022Z,27
2019-03-22T09:52:02.199Z,29
2019-03-22T09:53:02.736Z,27
2019-03-22T09:54:01.679Z,32
2019-03-22T09:55:14.698Z,25
2019-03-22T09:56:02.097Z,28
2019-03-22T09:57:02.255Z,26
2019-03-22T09:58:02.470Z,25
2019-03-22T09:59:02.578Z,24
2019-03-22T10:00:04.707Z,26
2019-03-22T10:01:01.732Z,29
2019-03-22T10:02:01.867Z,28
2019-03-22T10:03:02.214Z,29
2019-03-22T10:04:02.473Z,28
2019-03-22T10:05:02.607Z,25
2019-03-22T10:06:01.889Z,28
2019-03-22T10:07:02.188Z,28
2019-03-22T10:08:02.407Z,27
2019-03-22T10:09:05.955Z,25
2019-03-22T10:10:02.740Z,23
2019-03-22T10:11:01.876Z,26
2019-03-22T10:12:02.129Z,25
2019-03-22T10:13:02.287Z,27
2019-03-22T10:14:02.516Z,31
2019-03-22T10:15:01.878Z,32
2019-03-22T10:16:01.930Z,25
2019-03-22T10:17:02.139Z,27
2019-03-22T10:18:02.445Z,31
2019-03-22T10:19:02.588Z,30
2019-03-22T10:20:01.997Z,30
2019-03-22T10:21:02.057Z,23
2019-03-22T10:22:02.286Z,31
2019-03-22T10:23:02.539Z,25
2019-03-22T10:24:01.652Z,24
2019-03-22T10:25:02.332Z,29
2019-03-22T10:26:02.393Z,27
2019-03-22T10:27:05.667Z,30
2019-03-22T10:28:02.034Z,26
2019-03-22T10:29:02.263Z,28
2019-03-22T10:30:02.379Z,30
2019-03-22T10:31:02.558Z,25
2019-03-22T10:32:01.862Z,28
2019-03-22T10:33:01.993Z,31
2019-03-22T10:34:02.234Z,23
2019-03-22T10:35:02.532Z,28
2019-03-22T10:36:01.621Z,30
2019-03-22T10:37:01.900Z,27
2019-03-22T10:38:15.631Z,31
2019-03-22T10:39:02.435Z,29
2019-03-22T10:40:02.783Z,31
2019-03-22T10:41:01.779Z,31
2019-03-22T10:42:02.224Z,30
2019-03-22T10:43:02.311Z,31
2019-03-22T10:44:02.492Z,30
2019-03-22T10:45:01.781Z,28
2019-03-22T10:46:01.916Z,29
2019-03-22T10:47:02.206Z,31
2019-03-22T10:48:02.401Z,30
2019-03-22T10:49:02.799Z,28
2019-03-22T10:50:01.905Z,29
2019-03-22T10:51:01.962Z,28
2019-03-22T10:52:05.004Z,28
2019-03-22T10:53:02.447Z,29
2019-03-22T10:54:01.690Z,31
2019-03-22T10:55:30.453Z,32
2019-03-22T10:56:02.130Z,29
2019-03-22T10:57:02.428Z,26
2019-03-22T10:58:02.542Z,29
2019-03-22T10:59:01.739Z,33
2019-03-22T11:00:03.926Z,30
2019-03-22T11:01:01.729Z,26
2019-03-22T11:02:06.336Z,27
2019-03-22T11:03:02.573Z,33
2019-03-22T11:04:02.177Z,36
2019-03-22T11:05:02.753Z,31
2019-03-22T11:06:02.167Z,30
2019-03-22T11:07:02.436Z,33
2019-03-22T11:08:02.599Z,31
2019-03-22T11:09:01.823Z,39
2019-03-22T11:10:02.050Z,32
2019-03-22T11:11:02.185Z,32
2019-03-22T11:12:12.855Z,31
2019-03-22T11:13:02.865Z,33
2019-03-22T11:14:01.751Z,30
2019-03-22T11:15:01.989Z,35
2019-03-22T11:16:02.072Z,31
2019-03-22T11:17:02.371Z,33
2019-03-22T11:18:02.553Z,30
2019-03-22T11:19:01.713Z,34
2019-03-22T11:20:01.929Z,31
2019-03-22T11:21:05.911Z,29
2019-03-22T11:22:02.286Z,29
2019-03-22T11:23:02.676Z,31
2019-03-22T11:24:01.800Z,30
2019-03-22T11:25:04.831Z,38
2019-03-22T11:26:04.870Z,36
2019-03-22T11:27:02.057Z,37
2019-03-22T11:28:02.315Z,27
2019-03-22T11:29:02.532Z,29
2019-03-22T11:30:01.756Z,34
2019-03-22T11:31:05.454Z,33
2019-03-22T11:32:12.124Z,38
2019-03-22T11:33:02.331Z,32
2019-03-22T11:34:02.559Z,29
2019-03-22T11:35:01.799Z,30
2019-03-22T11:36:02.039Z,38
2019-03-22T11:37:02.269Z,39
2019-03-22T11:38:02.465Z,37
2019-03-22T11:39:01.704Z,32
2019-03-22T11:40:01.966Z,36
2019-03-22T11:41:02.074Z,31
2019-03-22T11:42:02.415Z,35
2019-03-22T11:43:09.340Z,34
2019-03-22T11:44:01.699Z,36
2019-03-22T11:45:01.861Z,36
2019-03-22T11:46:02.099Z,37
2019-03-22T11:47:02.352Z,34
2019-03-22T11:48:02.550Z,32
2019-03-22T11:49:01.774Z,31
2019-03-22T11:50:01.981Z,36
2019-03-22T11:51:02.164Z,31
2019-03-22T11:52:02.431Z,32
2019-03-22T11:53:01.661Z,34
2019-03-22T11:54:01.910Z,34
2019-03-22T11:55:02.177Z,35
2019-03-22T11:56:02.365Z,39
2019-03-22T11:57:02.628Z,37
2019-03-22T11:58:01.826Z,35
2019-03-22T11:59:01.985Z,32
2019-03-22T12:00:04.881Z,34
2019-03-22T12:01:01.751Z,36
2019-03-22T12:02:01.985Z,40
2019-03-22T12:03:02.299Z,32
2019-03-22T12:04:02.480Z,38
2019-03-22T12:05:01.724Z,34
2019-03-22T12:06:01.851Z,38
2019-03-22T12:07:02.126Z,37
2019-03-22T12:08:02.450Z,38
2019-03-22T12:09:02.488Z,37
2019-03-22T12:10:01.716Z,37
2019-03-22T12:11:01.721Z,36
2019-03-22T12:12:01.905Z,41
2019-03-22T12:13:02.200Z,42
2019-03-22T12:14:02.338Z,37
2019-03-22T12:15:02.569Z,38
2019-03-22T12:16:01.691Z,43
2019-03-22T12:17:01.936Z,40
2019-03-22T12:18:01.989Z,40
2019-03-22T12:19:02.149Z,34
2019-03-22T12:20:02.390Z,33
2019-03-22T12:21:01.848Z,33
2019-03-22T12:22:02.037Z,35
2019-03-22T12:23:02.246Z,37
2019-03-22T12:24:02.421Z,41
2019-03-22T12:25:02.127Z,41
2019-03-22T12:26:02.054Z,36
2019-03-22T12:27:02.324Z,34
2019-03-22T12:28:02.579Z,37
2019-03-22T12:29:01.726Z,36
2019-03-22T12:30:02.018Z,32
2019-03-22T12:31:02.305Z,35
2019-03-22T12:32:02.496Z,31
2019-03-22T12:33:01.755Z,39
2019-03-22T12:34:04.160Z,33
2019-03-22T12:35:02.255Z,37
2019-03-22T12:36:02.489Z,34
2019-03-22T12:37:01.789Z,34
2019-03-22T12:38:02.019Z,39
2019-03-22T12:39:02.587Z,36
2019-03-22T12:40:01.820Z,32
2019-03-22T12:41:02.081Z,34
2019-03-22T12:42:02.306Z,34
2019-03-22T12:43:02.541Z,31
2019-03-22T12:44:01.759Z,33
2019-03-22T12:45:02.050Z,30
2019-03-22T12:46:02.393Z,33
2019-03-22T12:47:02.547Z,31
2019-03-22T12:48:01.754Z,34
2019-03-22T12:49:01.972Z,32
2019-03-22T12:50:02.291Z,33
2019-03-22T12:51:02.630Z,33
2019-03-22T12:52:01.658Z,34
2019-03-22T12:53:01.908Z,36
2019-03-22T12:54:02.128Z,35
2019-03-22T12:55:02.361Z,35
2019-03-22T12:56:02.589Z,31
2019-03-22T12:57:01.812Z,36
2019-03-22T12:58:02.037Z,34
2019-03-22T12:59:02.352Z,34
2019-03-22T13:00:03.608Z,31
2019-03-22T13:01:02.315Z,35
2019-03-22T13:02:02.154Z,30
2019-03-22T13:03:02.421Z,30
2019-03-22T13:04:01.738Z,36
2019-03-22T13:05:01.893Z,37
2019-03-22T13:06:02.079Z,34
2019-03-22T13:07:02.328Z,24
2019-03-22T13:08:02.843Z,32
2019-03-22T13:09:01.744Z,37
2019-03-22T13:10:01.950Z,36
2019-03-22T13:11:01.742Z,32
2019-03-22T13:12:02.031Z,31
2019-03-22T13:13:02.199Z,33
2019-03-22T13:14:02.404Z,32
2019-03-22T13:15:01.786Z,37
2019-03-22T13:16:01.943Z,33
2019-03-22T13:17:02.172Z,34
2019-03-22T13:18:02.447Z,33
2019-03-22T13:19:02.650Z,34
2019-03-22T13:20:02.148Z,34
2019-03-22T13:21:02.312Z,34
2019-03-22T13:22:02.226Z,33
2019-03-22T13:23:02.551Z,29
2019-03-22T13:24:05.562Z,31
2019-03-22T13:25:01.824Z,33
2019-03-22T13:26:01.977Z,32
2019-03-22T13:27:02.218Z,33
2019-03-22T13:28:02.470Z,31
2019-03-22T13:29:01.681Z,32
2019-03-22T13:30:01.896Z,30
2019-03-22T13:31:02.063Z,35
2019-03-22T13:32:02.278Z,36
2019-03-22T13:33:02.481Z,30
2019-03-22T13:34:01.667Z,34
2019-03-22T13:35:01.939Z,36
2019-03-22T13:36:02.125Z,31
2019-03-22T13:37:02.363Z,34
2019-03-22T13:38:02.445Z,31
2019-03-22T13:39:01.680Z,31
2019-03-22T13:40:02.715Z,33
2019-03-22T13:41:01.895Z,36
2019-03-22T13:42:02.108Z,36
2019-03-22T13:43:02.334Z,27
2019-03-22T13:44:02.564Z,32
2019-03-22T13:45:02.571Z,32
2019-03-22T13:46:01.794Z,33
2019-03-22T13:47:01.969Z,33
2019-03-22T13:48:02.197Z,32
2019-03-22T13:49:02.444Z,30
2019-03-22T13:50:02.753Z,32
2019-03-22T13:51:01.842Z,33
2019-03-22T13:52:02.219Z,28
2019-03-22T13:53:02.330Z,30
2019-03-22T13:54:02.609Z,30
2019-03-22T13:55:06.758Z,30
2019-03-22T13:56:02.070Z,33
2019-03-22T13:57:02.374Z,32
2019-03-22T13:58:02.622Z,29
2019-03-22T13:59:01.769Z,33
2019-03-22T14:00:03.452Z,33
2019-03-22T14:01:02.320Z,26
2019-03-22T14:02:02.054Z,28
2019-03-22T14:03:03.772Z,29
2019-03-22T14:04:02.538Z,33
2019-03-22T14:05:01.830Z,29
2019-03-22T14:06:02.064Z,29
2019-03-22T14:07:02.335Z,27
2019-03-22T14:08:02.607Z,29
2019-03-22T14:09:01.798Z,38
2019-03-22T14:10:02.079Z,27
2019-03-22T14:11:02.302Z,28
2019-03-22T14:12:02.491Z,30
2019-03-22T14:13:01.736Z,34
2019-03-22T14:14:01.848Z,26
2019-03-22T14:15:01.910Z,35